createdAt,value
2022-09-23T00:01:11.135Z,10.50
2022-09-23T00:03:46.589Z,10.50
2022-09-23T00:06:20.689Z,10.50
2022-09-23T00:08:52.968Z,10.50
2022-09-23T00:11:28.398Z,10.60
2022-09-23T00:14:00.550Z,10.40
2022-09-23T00:16:34.802Z,10.40
2022-09-23T00:19:06.486Z,10.40
2022-09-23T00:21:38.304Z,10.30
2022-09-23T00:24:10.088Z,10.30
2022-09-23T00:26:43.102Z,10.30
2022-09-23T00:29:16.013Z,10.30
2022-09-23T00:31:47.897Z,10.20
2022-09-23T00:34:19.592Z,10.20
2022-09-23T00:39:23.465Z,10.20
2022-09-23T00:41:56.390Z,10.30
2022-09-23T00:44:48.051Z,10.30
2022-09-23T00:47:21.654Z,10.20
2022-09-23T00:49:57.785Z,10.10
2022-09-23T00:52:30.013Z,10.10
2022-09-23T01:10:19.305Z,9.80
2022-09-23T01:13:03.440Z,10.00
2022-09-23T01:46:09.688Z,9.50
2022-09-23T01:48:43.835Z,9.50
2022-09-23T01:51:17.400Z,9.40
2022-09-23T01:53:51.150Z,9.30
2022-09-23T01:56:24.142Z,9.30
2022-09-23T01:58:59.717Z,9.30
2022-09-23T02:01:36.282Z,9.20
2022-09-23T02:04:09.788Z,9.20
2022-09-23T02:06:43.969Z,9.20
2022-09-23T02:09:16.666Z,9.20
2022-09-23T02:11:49.021Z,9.10
2022-09-23T02:14:23.275Z,9.20
2022-09-23T02:16:58.546Z,9.20
2022-09-23T02:19:32.248Z,9.10
2022-09-23T02:22:05.655Z,9.00
2022-09-23T02:24:38.292Z,9.00
2022-09-23T02:27:15.097Z,8.90
2022-09-23T02:29:49.689Z,8.90
2022-09-23T02:32:23.689Z,8.90
2022-09-23T02:34:58.807Z,8.90
2022-09-23T02:37:32.783Z,8.90
2022-09-23T02:40:12.870Z,8.90
2022-09-23T02:42:47.702Z,9.00
2022-09-23T02:45:19.474Z,8.80
2022-09-23T02:47:54.490Z,8.80
2022-09-23T02:50:26.528Z,8.90
2022-09-23T02:52:58.281Z,8.80
2022-09-23T02:55:33.229Z,8.80
2022-09-23T02:58:05.530Z,8.80
2022-09-23T03:00:42.759Z,8.80
2022-09-23T03:03:20.694Z,8.90
2022-09-23T03:05:54.978Z,8.70
2022-09-23T03:08:30.013Z,8.70
2022-09-23T03:11:05.908Z,8.70
2022-09-23T03:13:43.082Z,8.40
2022-09-23T03:16:19.953Z,8.80
2022-09-23T03:18:55.987Z,8.60
2022-09-23T03:21:29.267Z,8.60
2022-09-23T03:24:02.689Z,8.60
2022-09-23T03:26:36.094Z,8.60
2022-09-23T03:29:11.466Z,8.60
2022-09-23T03:31:43.295Z,8.50
2022-09-23T03:34:18.646Z,8.50
2022-09-23T03:37:00.541Z,8.50
2022-09-23T03:39:35.598Z,8.50
2022-09-23T03:42:16.785Z,8.40
2022-09-23T03:44:52.344Z,8.40
2022-09-23T03:47:25.395Z,8.40
2022-09-23T03:49:58.383Z,8.40
2022-09-23T03:52:30.046Z,8.60
2022-09-23T03:55:01.693Z,8.50
2022-09-23T03:57:33.450Z,8.50
2022-09-23T04:00:06.831Z,8.80
2022-09-23T04:02:39.161Z,8.50
2022-09-23T04:05:12.899Z,8.60
2022-09-23T04:07:44.836Z,8.40
2022-09-23T04:10:16.473Z,8.50
2022-09-23T04:12:48.111Z,8.50
2022-09-23T04:15:19.842Z,8.70
2022-09-23T04:17:51.512Z,8.50
2022-09-23T04:25:28.511Z,8.50
2022-09-23T04:28:00.258Z,8.60
2022-09-23T04:30:31.821Z,8.60
2022-09-23T04:33:03.634Z,8.50
2022-09-23T04:35:39.912Z,8.50
2022-09-23T04:38:12.673Z,8.50
2022-09-23T04:40:45.859Z,8.50
2022-09-23T04:43:17.780Z,8.50
2022-09-23T04:45:57.258Z,8.50
2022-09-23T04:48:29.110Z,8.50
2022-09-23T04:51:04.203Z,8.50
2022-09-23T04:53:37.019Z,8.50
2022-09-23T04:56:11.203Z,8.50
2022-09-23T04:58:43.396Z,8.50
2022-09-23T05:01:16.381Z,8.50
2022-09-23T05:03:47.989Z,8.50
2022-09-23T05:06:20.479Z,8.50
2022-09-23T05:08:52.907Z,8.50
2022-09-23T05:11:26.495Z,8.50
2022-09-23T05:13:58.251Z,8.50
2022-09-23T05:16:30.119Z,8.50
2022-09-23T05:19:03.350Z,8.50
2022-09-23T05:26:42.767Z,8.40
2022-09-23T05:29:14.357Z,8.40
2022-09-23T05:34:18.748Z,8.40
2022-09-23T05:41:59.996Z,8.40
2022-09-23T05:44:31.625Z,8.50
2022-09-23T05:47:03.473Z,8.50
2022-09-23T05:49:58.133Z,8.50
2022-09-23T05:52:28.151Z,8.60
2022-09-23T05:54:59.767Z,8.60
2022-09-23T05:57:32.779Z,8.60
2022-09-23T06:00:05.036Z,8.70
2022-09-23T06:02:37.318Z,8.70
2022-09-23T06:05:09.184Z,8.60
2022-09-23T06:25:28.623Z,9.00
2022-09-23T06:28:00.338Z,8.90
2022-09-23T06:30:31.939Z,8.90
2022-09-23T06:33:03.564Z,9.00
2022-09-23T06:35:35.167Z,9.00
2022-09-23T06:38:06.916Z,9.10
2022-09-23T06:40:39.956Z,9.10
2022-09-23T06:43:11.660Z,9.20
2022-09-23T06:45:43.752Z,9.30
2022-09-23T06:48:15.449Z,9.30
2022-09-23T06:50:48.345Z,9.40
2022-09-23T06:53:22.831Z,9.50
2022-09-23T06:55:59.679Z,9.50
2022-09-23T06:58:31.920Z,9.60
2022-09-23T07:01:05.304Z,9.70
2022-09-23T07:03:38.293Z,9.80
2022-09-23T07:06:10.060Z,9.90
2022-09-23T07:08:43.655Z,10.00
2022-09-23T07:11:19.332Z,10.10
2022-09-23T07:13:51.180Z,10.20
2022-09-23T07:16:23.148Z,10.20
2022-09-23T07:18:55.174Z,10.40
2022-09-23T07:21:27.790Z,10.50
2022-09-23T07:23:59.530Z,10.50
2022-09-23T07:26:34.053Z,10.60
2022-09-23T07:29:05.713Z,10.70
2022-09-23T07:31:39.970Z,10.90
2022-09-23T07:34:12.044Z,10.90
2022-09-23T07:36:43.919Z,11.00
2022-09-23T07:39:15.834Z,11.10
2022-09-23T07:41:49.240Z,11.20
2022-09-23T07:44:21.887Z,11.30
2022-09-23T07:46:53.696Z,11.40
2022-09-23T07:49:25.825Z,11.50
2022-09-23T07:51:57.532Z,11.60
2022-09-23T07:54:32.750Z,11.60
2022-09-23T07:57:05.789Z,11.70
2022-09-23T07:59:37.586Z,11.80
2022-09-23T08:02:09.385Z,11.90
2022-09-23T08:04:41.035Z,12.00
2022-09-23T08:07:13.128Z,12.00
2022-09-23T08:09:45.352Z,12.10
2022-09-23T08:12:18.818Z,12.20
2022-09-23T08:14:50.426Z,12.30
2022-09-23T08:17:22.004Z,12.30
2022-09-23T08:19:53.626Z,12.40
2022-09-23T08:22:25.383Z,12.40
2022-09-23T08:24:58.380Z,12.50
2022-09-23T08:27:32.946Z,12.60
2022-09-23T08:30:04.979Z,12.70
2022-09-23T08:32:36.918Z,12.70
2022-09-23T08:35:08.776Z,12.80
2022-09-23T08:37:40.408Z,12.90
2022-09-23T08:40:12.135Z,13.00
2022-09-23T08:42:45.735Z,13.10
2022-09-23T08:45:19.785Z,13.10
2022-09-23T08:47:53.132Z,13.10
2022-09-23T08:50:28.786Z,13.20
2022-09-23T08:53:02.142Z,13.30
2022-09-23T08:55:34.680Z,13.40
2022-09-23T08:58:26.854Z,13.40
2022-09-23T09:01:01.477Z,13.50
2022-09-23T09:03:35.900Z,13.60
2022-09-23T09:06:10.377Z,13.60
2022-09-23T09:08:42.211Z,13.70
2022-09-23T09:11:15.303Z,13.80
2022-09-23T09:13:53.346Z,13.90
2022-09-23T09:16:55.419Z,13.90
2022-09-23T09:19:22.242Z,14.00
2022-09-23T09:21:54.759Z,14.10
2022-09-23T09:24:29.196Z,14.10
2022-09-23T09:27:01.021Z,14.20
2022-09-23T09:29:37.609Z,14.20
2022-09-23T09:32:16.114Z,14.30
2022-09-23T09:34:49.790Z,14.40
2022-09-23T09:37:25.408Z,14.40
2022-09-23T09:39:57.123Z,14.50
2022-09-23T09:42:35.674Z,14.60
2022-09-23T09:45:15.089Z,14.70
2022-09-23T09:47:48.630Z,14.70
2022-09-23T09:50:43.211Z,14.80
2022-09-23T09:53:15.788Z,14.90
2022-09-23T09:55:58.856Z,14.90
2022-09-23T09:58:43.824Z,15.00
2022-09-23T10:01:21.482Z,15.10
2022-09-23T10:03:56.922Z,15.20
2022-09-23T10:06:32.531Z,15.20
2022-09-23T10:09:11.941Z,15.30
2022-09-23T10:11:54.462Z,15.40
2022-09-23T10:14:26.680Z,15.40
2022-09-23T10:17:05.208Z,15.50
2022-09-23T10:19:38.107Z,15.50
2022-09-23T10:22:19.150Z,15.60
2022-09-23T10:24:54.387Z,15.60
2022-09-23T10:27:31.311Z,15.70
2022-09-23T10:30:05.958Z,15.80
2022-09-23T10:32:44.968Z,15.80
2022-09-23T10:35:18.485Z,15.90
2022-09-23T10:37:52.721Z,15.90
2022-09-23T10:40:48.435Z,16.10
2022-09-23T10:43:46.714Z,16.10
2022-09-23T10:46:40.750Z,16.20
2022-09-23T10:49:51.165Z,16.30
2022-09-23T10:52:45.429Z,16.30
2022-09-23T10:55:31.459Z,16.40
2022-09-23T10:58:20.537Z,16.50
2022-09-23T11:01:02.505Z,16.70
2022-09-23T11:04:01.352Z,16.70
2022-09-23T11:06:46.347Z,16.80
2022-09-23T11:09:29.061Z,16.90
2022-09-23T11:12:14.131Z,17.00
2022-09-23T11:15:00.072Z,17.10
2022-09-23T11:17:52.648Z,17.10
2022-09-23T11:20:52.578Z,17.30
2022-09-23T11:23:57.318Z,17.30
2022-09-23T11:26:41.301Z,17.50
2022-09-23T11:29:33.835Z,17.60
2022-09-23T11:32:26.468Z,17.70
2022-09-23T11:35:16.198Z,17.90
2022-09-23T11:37:52.877Z,18.20
2022-09-23T11:40:31.094Z,18.70
2022-09-23T11:43:07.404Z,19.30
2022-09-23T11:45:46.201Z,19.90
2022-09-23T11:48:22.839Z,20.60
2022-09-23T11:50:58.630Z,21.30
2022-09-23T11:56:23.921Z,22.70
2022-09-23T11:59:06.119Z,23.20
2022-09-23T12:01:45.652Z,23.70
2022-09-23T12:04:29.175Z,24.00
2022-09-23T12:07:07.712Z,24.20
2022-09-23T12:09:58.198Z,24.50
2022-09-23T12:12:38.996Z,24.90
2022-09-23T12:15:24.455Z,25.10
2022-09-23T12:18:10.546Z,25.20
2022-09-23T12:20:50.458Z,25.30
2022-09-23T12:23:39.759Z,25.40
2022-09-23T12:28:53.035Z,25.60
2022-09-23T12:31:33.877Z,25.60
2022-09-23T12:34:21.673Z,25.70
2022-09-23T12:36:53.479Z,25.80
2022-09-23T12:39:29.835Z,26.00
2022-09-23T12:42:04.640Z,26.50
2022-09-23T12:44:41.360Z,26.70
2022-09-23T12:47:37.876Z,26.70
2022-09-23T12:50:45.960Z,26.90
2022-09-23T12:53:53.310Z,27.30
2022-09-23T12:56:43.199Z,27.90
2022-09-23T12:59:25.303Z,27.90
2022-09-23T13:02:22.985Z,28.10
2022-09-23T13:05:17.997Z,28.20
2022-09-23T13:10:32.740Z,28.20
2022-09-23T13:13:06.327Z,28.20
2022-09-23T13:15:38.549Z,28.10
2022-09-23T13:18:50.578Z,28.00
2022-09-23T13:22:00.370Z,27.50
2022-09-23T13:24:43.905Z,26.90
2022-09-23T13:27:20.971Z,26.30
2022-09-23T13:29:58.615Z,25.90
2022-09-23T13:32:33.179Z,25.60
2022-09-23T13:35:16.522Z,25.40
2022-09-23T13:37:49.687Z,25.30
2022-09-23T13:40:25.790Z,25.30
2022-09-23T13:43:01.104Z,25.50
2022-09-23T13:45:37.925Z,25.70
2022-09-23T13:48:13.558Z,25.90
2022-09-23T13:50:49.032Z,26.20
2022-09-23T13:53:25.488Z,26.50
2022-09-23T13:56:02.563Z,26.70
2022-09-23T13:58:36.091Z,26.80
2022-09-23T14:01:08.659Z,26.90
2022-09-23T14:03:40.477Z,26.90
2022-09-23T14:06:15.942Z,26.80
2022-09-23T14:08:50.115Z,26.60
2022-09-23T14:11:23.815Z,26.20
2022-09-23T14:13:56.824Z,25.90
2022-09-23T14:16:29.452Z,25.50
2022-09-23T14:19:01.662Z,25.20
2022-09-23T14:21:36.984Z,24.80
2022-09-23T14:24:16.980Z,24.50
2022-09-23T14:26:52.207Z,24.20
2022-09-23T14:29:26.114Z,24.00
2022-09-23T14:32:03.007Z,23.80
2022-09-23T14:34:45.954Z,23.70
2022-09-23T14:37:45.472Z,23.50
2022-09-23T14:40:18.951Z,23.30
2022-09-23T14:42:58.469Z,23.20
2022-09-23T14:45:34.540Z,23.10
2022-09-23T14:48:10.886Z,23.00
2022-09-23T14:50:47.546Z,23.00
2022-09-23T14:53:40.799Z,23.10
2022-09-23T14:56:22.457Z,23.20
2022-09-23T14:58:56.315Z,23.40
2022-09-23T15:01:38.784Z,23.50
2022-09-23T15:04:27.864Z,23.50
2022-09-23T15:07:06.096Z,23.50
2022-09-23T15:09:41.238Z,23.50
2022-09-23T15:12:15.278Z,23.40
2022-09-23T15:14:51.281Z,23.30
2022-09-23T15:17:30.609Z,23.20
2022-09-23T15:20:05.295Z,23.20
2022-09-23T15:22:44.310Z,23.10
2022-09-23T15:25:21.380Z,23.00
2022-09-23T15:27:58.536Z,22.80
2022-09-23T15:30:32.067Z,22.60
2022-09-23T15:33:03.959Z,22.40
2022-09-23T15:35:36.434Z,22.30
2022-09-23T15:38:10.033Z,22.30
2022-09-23T15:40:43.716Z,22.10
2022-09-23T15:43:21.002Z,22.00
2022-09-23T15:45:57.037Z,22.00
2022-09-23T15:48:36.201Z,21.90
2022-09-23T15:51:09.790Z,21.80
2022-09-23T15:53:41.560Z,21.70
2022-09-23T15:56:14.656Z,21.60
2022-09-23T15:58:47.013Z,21.50
2022-09-23T16:01:24.050Z,21.40
2022-09-23T16:03:56.095Z,21.30
2022-09-23T16:06:28.090Z,21.20
2022-09-23T16:08:59.872Z,21.10
2022-09-23T16:11:32.983Z,21.00
2022-09-23T16:14:04.737Z,20.90
2022-09-23T16:16:36.554Z,20.80
2022-09-23T16:19:08.494Z,20.70
2022-09-23T16:21:40.948Z,20.60
2022-09-23T16:24:15.783Z,20.50
2022-09-23T16:26:48.890Z,20.40
2022-09-23T16:29:20.598Z,20.30
2022-09-23T16:31:52.484Z,20.20
2022-09-23T16:34:25.053Z,20.20
2022-09-23T16:36:56.830Z,20.10
2022-09-23T16:39:28.659Z,20.10
2022-09-23T16:42:02.156Z,20.10
2022-09-23T16:44:34.176Z,20.00
2022-09-23T16:47:06.140Z,19.90
2022-09-23T16:49:37.942Z,19.80
2022-09-23T16:52:11.516Z,19.80
2022-09-23T16:54:43.709Z,19.70
2022-09-23T16:57:16.879Z,19.60
2022-09-23T17:00:07.184Z,19.60
2022-09-23T17:02:57.790Z,19.50
2022-09-23T17:05:29.583Z,19.50
2022-09-23T17:08:01.799Z,19.40
2022-09-23T17:10:33.983Z,19.40
2022-09-23T17:13:08.159Z,19.40
2022-09-23T17:15:40.793Z,19.20
2022-09-23T17:18:15.512Z,19.10
2022-09-23T17:21:00.905Z,19.00
2022-09-23T17:23:35.146Z,18.90
2022-09-23T17:26:09.823Z,18.90
2022-09-23T17:28:42.988Z,18.80
2022-09-23T17:31:14.752Z,18.70
2022-09-23T17:33:46.644Z,18.60
2022-09-23T17:36:18.639Z,18.60
2022-09-23T17:38:53.459Z,18.60
2022-09-23T17:41:25.366Z,18.50
2022-09-23T17:43:58.597Z,18.50
2022-09-23T17:46:30.940Z,18.30
2022-09-23T17:49:04.050Z,18.20
2022-09-23T17:51:36.266Z,18.10
2022-09-23T17:54:08.155Z,18.00
2022-09-23T17:56:39.925Z,17.90
2022-09-23T17:59:13.263Z,17.80
2022-09-23T18:01:44.941Z,17.80
2022-09-23T18:04:16.728Z,17.70
2022-09-23T18:06:48.534Z,17.70
2022-09-23T18:09:20.575Z,17.70
2022-09-23T18:11:52.524Z,17.60
2022-09-23T18:14:26.168Z,17.60
2022-09-23T18:16:57.964Z,17.50
2022-09-23T18:19:29.775Z,17.50
2022-09-23T18:22:01.633Z,17.50
2022-09-23T18:24:37.854Z,17.50
2022-09-23T18:27:09.699Z,17.60
2022-09-23T18:29:42.838Z,17.80
2022-09-23T18:32:14.698Z,18.10
2022-09-23T18:34:46.546Z,18.40
2022-09-23T18:37:18.282Z,18.60
2022-09-23T18:39:50.140Z,18.80
2022-09-23T18:42:23.573Z,19.00
2022-09-23T18:44:58.358Z,19.30
2022-09-23T18:47:48.380Z,19.40
2022-09-23T18:50:38.592Z,19.60
2022-09-23T18:53:10.655Z,19.80
2022-09-23T18:55:42.517Z,20.00
2022-09-23T18:58:14.333Z,20.20
2022-09-23T19:00:50.138Z,20.00
2022-09-23T19:03:22.019Z,19.80
2022-09-23T19:05:53.797Z,19.50
2022-09-23T19:08:25.595Z,19.30
2022-09-23T19:10:58.756Z,19.10
2022-09-23T19:13:30.617Z,18.90
2022-09-23T19:16:05.696Z,18.70
2022-09-23T19:18:38.642Z,18.50
2022-09-23T19:21:12.673Z,18.30
2022-09-23T19:23:47.670Z,18.20
2022-09-23T19:26:21.686Z,18.00
2022-09-23T19:28:55.247Z,17.80
2022-09-23T19:31:30.149Z,17.60
2022-09-23T19:34:04.487Z,17.40
2022-09-23T19:36:39.330Z,17.30
2022-09-23T19:39:15.849Z,17.20
2022-09-23T19:41:48.441Z,17.10
2022-09-23T19:44:20.372Z,17.00
2022-09-23T19:46:56.753Z,16.90
2022-09-23T19:49:31.067Z,16.90
2022-09-23T19:52:03.053Z,16.80
2022-09-23T19:54:34.771Z,16.70
2022-09-23T19:57:06.506Z,16.70
2022-09-23T19:59:38.566Z,16.60
2022-09-23T20:02:12.655Z,16.50
2022-09-23T20:04:44.618Z,16.50
2022-09-23T20:07:16.340Z,16.40
2022-09-23T20:09:48.079Z,16.30
2022-09-23T20:12:20.307Z,16.30
2022-09-23T20:14:52.077Z,16.20
2022-09-23T20:17:25.189Z,16.20
2022-09-23T20:19:57.054Z,16.10
2022-09-23T20:22:33.123Z,16.00
2022-09-23T20:25:07.267Z,16.00
2022-09-23T20:27:39.472Z,16.00
2022-09-23T20:30:11.938Z,15.90
2022-09-23T20:32:45.194Z,15.90
2022-09-23T20:35:16.982Z,15.80
2022-09-23T20:37:48.681Z,15.80
2022-09-23T20:40:22.958Z,15.70
2022-09-23T20:42:54.751Z,15.70
2022-09-23T20:45:26.493Z,15.70
2022-09-23T20:48:00.183Z,15.60
2022-09-23T20:50:31.915Z,15.60
2022-09-23T20:53:03.549Z,15.50
2022-09-23T20:55:35.269Z,15.50
2022-09-23T20:58:07.029Z,15.40
2022-09-23T21:00:38.747Z,15.30
2022-09-23T21:03:11.767Z,15.30
2022-09-23T21:05:43.354Z,15.20
2022-09-23T21:08:16.375Z,15.20
2022-09-23T21:10:52.890Z,15.20
2022-09-23T21:13:24.497Z,15.20
2022-09-23T21:15:56.174Z,15.20
2022-09-23T21:18:29.814Z,15.20
2022-09-23T21:21:01.558Z,15.20
2022-09-23T21:23:34.006Z,15.10
2022-09-23T21:26:06.698Z,15.10
2022-09-23T21:28:39.205Z,15.10
2022-09-23T21:31:13.150Z,15.10
2022-09-23T21:33:46.173Z,15.10
2022-09-23T21:36:17.791Z,15.00
2022-09-23T21:38:49.601Z,15.00
2022-09-23T21:41:21.615Z,15.00
2022-09-23T21:43:55.568Z,15.00
2022-09-23T21:46:28.266Z,15.00
2022-09-23T21:49:03.870Z,15.00
2022-09-23T21:51:37.698Z,14.90
2022-09-23T21:54:11.493Z,14.90
2022-09-23T21:56:43.462Z,14.90
2022-09-23T21:59:15.061Z,14.90
2022-09-23T22:01:49.382Z,14.80
2022-09-23T22:04:26.304Z,14.80
2022-09-23T22:07:00.100Z,14.60
2022-09-23T22:09:31.686Z,14.70
2022-09-23T22:12:09.910Z,14.70
2022-09-23T22:14:42.852Z,14.60
2022-09-23T22:17:15.656Z,14.60
2022-09-23T22:19:48.771Z,14.60
2022-09-23T22:22:20.435Z,14.60
2022-09-23T22:24:52.275Z,14.50
2022-09-23T22:27:25.349Z,14.50
2022-09-23T22:30:15.451Z,14.50
2022-09-23T22:32:52.888Z,14.50
2022-09-23T22:35:27.950Z,14.50
2022-09-23T22:38:01.065Z,14.40
2022-09-23T22:40:32.944Z,14.40
2022-09-23T22:43:04.881Z,14.40
2022-09-23T22:45:37.571Z,14.40
2022-09-23T22:48:09.208Z,14.40
2022-09-23T22:50:42.149Z,14.40
2022-09-23T22:53:14.099Z,14.30
2022-09-23T22:55:45.670Z,14.30
2022-09-23T22:58:31.733Z,14.30
2022-09-23T23:01:03.785Z,14.30
2022-09-23T23:03:35.553Z,14.30
2022-09-23T23:06:09.855Z,14.30
2022-09-23T23:08:41.455Z,14.30
2022-09-23T23:11:13.041Z,14.30
2022-09-23T23:13:44.769Z,14.30
2022-09-23T23:16:16.426Z,14.30
2022-09-23T23:18:48.054Z,14.20
2022-09-23T23:21:21.305Z,14.20
2022-09-23T23:23:53.227Z,14.20
2022-09-23T23:26:26.467Z,14.20
2022-09-23T23:28:58.525Z,14.10
2022-09-23T23:31:32.068Z,14.10
2022-09-23T23:34:04.174Z,14.10
2022-09-23T23:36:37.508Z,14.10
2022-09-23T23:39:09.594Z,14.10
2022-09-23T23:41:41.591Z,14.10
2022-09-23T23:44:13.274Z,14.10
2022-09-23T23:46:44.969Z,14.10
2022-09-23T23:49:16.761Z,14.10
2022-09-23T23:51:49.752Z,14.10
2022-09-23T23:54:21.639Z,14.10
2022-09-23T23:56:53.246Z,14.10
2022-09-23T23:59:25.876Z,14.10
